sensor_id;sensor_type;location;lat;lon;timestamp;P1;durP1;ratioP1;P2;durP2;ratioP2
10174;SDS011;18221;38.704;0.152;2023-07-20T00:11:37;21.60;;;18.38;;
10174;SDS011;18221;38.704;0.152;2023-07-20T00:14:06;24.40;;;19.40;;
10174;SDS011;18221;38.704;0.152;2023-07-20T00:16:34;26.02;;;19.60;;
10174;SDS011;18221;38.704;0.152;2023-07-20T00:19:02;22.40;;;19.63;;
10174;SDS011;18221;38.704;0.152;2023-07-20T00:21:32;28.05;;;22.08;;
10174;SDS011;18221;38.704;0.152;2023-07-20T00:24:00;25.70;;;21.10;;
10174;SDS011;18221;38.704;0.152;2023-07-20T00:26:28;24.70;;;19.40;;
10174;SDS011;18221;38.704;0.152;2023-07-20T00:28:58;30.77;;;20.40;;
10174;SDS011;18221;38.704;0.152;2023-07-20T00:31:26;26.30;;;19.05;;
10174;SDS011;18221;38.704;0.152;2023-07-20T00:33:54;28.35;;;19.20;;
10174;SDS011;18221;38.704;0.152;2023-07-20T00:36:22;23.02;;;18.98;;
10174;SDS011;18221;38.704;0.152;2023-07-20T00:38:50;27.27;;;20.00;;
10174;SDS011;18221;38.704;0.152;2023-07-20T00:41:18;29.17;;;19.90;;
10174;SDS011;18221;38.704;0.152;2023-07-20T00:43:46;27.05;;;21.45;;
10174;SDS011;18221;38.704;0.152;2023-07-20T00:46:16;26.30;;;20.67;;
10174;SDS011;18221;38.704;0.152;2023-07-20T00:48:44;28.98;;;20.52;;
10174;SDS011;18221;38.704;0.152;2023-07-20T00:51:13;23.88;;;20.90;;
10174;SDS011;18221;38.704;0.152;2023-07-20T00:53:41;28.92;;;21.60;;
10174;SDS011;18221;38.704;0.152;2023-07-20T00:56:10;22.48;;;19.95;;
10174;SDS011;18221;38.704;0.152;2023-07-20T00:58:38;28.40;;;20.30;;
10174;SDS011;18221;38.704;0.152;2023-07-20T01:01:06;26.40;;;19.70;;
10174;SDS011;18221;38.704;0.152;2023-07-20T01:03:36;24.88;;;18.98;;
10174;SDS011;18221;38.704;0.152;2023-07-20T01:06:07;25.30;;;19.08;;
10174;SDS011;18221;38.704;0.152;2023-07-20T01:08:59;24.17;;;18.40;;
10174;SDS011;18221;38.704;0.152;2023-07-20T01:11:39;26.10;;;19.73;;
10174;SDS011;18221;38.704;0.152;2023-07-20T01:14:16;22.48;;;19.48;;
10174;SDS011;18221;38.704;0.152;2023-07-20T01:16:45;27.00;;;19.33;;
10174;SDS011;18221;38.704;0.152;2023-07-20T01:19:16;24.55;;;18.80;;
10174;SDS011;18221;38.704;0.152;2023-07-20T01:21:45;25.90;;;19.90;;
10174;SDS011;18221;38.704;0.152;2023-07-20T01:24:44;24.60;;;19.70;;
10174;SDS011;18221;38.704;0.152;2023-07-20T01:30:59;24.05;;;19.45;;
10174;SDS011;18221;38.704;0.152;2023-07-20T01:33:52;27.73;;;20.55;;
10174;SDS011;18221;38.704;0.152;2023-07-20T01:36:24;27.63;;;20.52;;
10174;SDS011;18221;38.704;0.152;2023-07-20T01:38:59;26.55;;;20.85;;
10174;SDS011;18221;38.704;0.152;2023-07-20T01:41:30;22.77;;;20.35;;
10174;SDS011;18221;38.704;0.152;2023-07-20T01:43:58;23.10;;;19.85;;
10174;SDS011;18221;38.704;0.152;2023-07-20T01:46:27;23.40;;;19.90;;
10174;SDS011;18221;38.704;0.152;2023-07-20T01:48:55;23.52;;;20.80;;
10174;SDS011;18221;38.704;0.152;2023-07-20T01:51:24;23.92;;;20.27;;
10174;SDS011;18221;38.704;0.152;2023-07-20T01:53:52;33.00;;;21.17;;
10174;SDS011;18221;38.704;0.152;2023-07-20T01:56:20;22.60;;;20.02;;
10174;SDS011;18221;38.704;0.152;2023-07-20T01:58:49;26.75;;;20.63;;
10174;SDS011;18221;38.704;0.152;2023-07-20T02:01:17;23.25;;;20.67;;
10174;SDS011;18221;38.704;0.152;2023-07-20T02:03:47;24.95;;;19.42;;
10174;SDS011;18221;38.704;0.152;2023-07-20T02:06:15;25.38;;;20.13;;
10174;SDS011;18221;38.704;0.152;2023-07-20T02:08:43;25.65;;;21.52;;
10174;SDS011;18221;38.704;0.152;2023-07-20T02:11:11;25.90;;;20.00;;
10174;SDS011;18221;38.704;0.152;2023-07-20T02:13:39;24.77;;;19.83;;
10174;SDS011;18221;38.704;0.152;2023-07-20T02:16:08;24.75;;;20.70;;
10174;SDS011;18221;38.704;0.152;2023-07-20T02:18:36;24.38;;;20.33;;
10174;SDS011;18221;38.704;0.152;2023-07-20T02:21:06;24.98;;;20.02;;
10174;SDS011;18221;38.704;0.152;2023-07-20T02:23:35;24.63;;;19.30;;
10174;SDS011;18221;38.704;0.152;2023-07-20T02:26:03;25.77;;;19.63;;
10174;SDS011;18221;38.704;0.152;2023-07-20T02:28:31;27.05;;;19.95;;
10174;SDS011;18221;38.704;0.152;2023-07-20T02:30:59;26.98;;;19.95;;
10174;SDS011;18221;38.704;0.152;2023-07-20T02:33:27;24.38;;;18.98;;
10174;SDS011;18221;38.704;0.152;2023-07-20T02:35:55;24.10;;;20.17;;
10174;SDS011;18221;38.704;0.152;2023-07-20T02:38:25;29.15;;;21.02;;
10174;SDS011;18221;38.704;0.152;2023-07-20T02:40:53;23.80;;;19.88;;
10174;SDS011;18221;38.704;0.152;2023-07-20T02:43:21;26.75;;;19.80;;
10174;SDS011;18221;38.704;0.152;2023-07-20T02:45:50;28.90;;;20.25;;
10174;SDS011;18221;38.704;0.152;2023-07-20T02:48:18;21.98;;;19.13;;
10174;SDS011;18221;38.704;0.152;2023-07-20T02:50:46;26.75;;;19.90;;
10174;SDS011;18221;38.704;0.152;2023-07-20T02:53:14;26.58;;;20.58;;
10174;SDS011;18221;38.704;0.152;2023-07-20T02:55:44;25.40;;;19.90;;
10174;SDS011;18221;38.704;0.152;2023-07-20T02:58:12;25.23;;;21.13;;
10174;SDS011;18221;38.704;0.152;2023-07-20T03:00:42;24.58;;;20.63;;
10174;SDS011;18221;38.704;0.152;2023-07-20T03:03:10;23.92;;;19.02;;
10174;SDS011;18221;38.704;0.152;2023-07-20T03:05:40;23.25;;;19.77;;
10174;SDS011;18221;38.704;0.152;2023-07-20T03:11:15;26.58;;;20.15;;
10174;SDS011;18221;38.704;0.152;2023-07-20T03:13:44;30.55;;;19.75;;
10174;SDS011;18221;38.704;0.152;2023-07-20T03:16:15;26.77;;;19.02;;
10174;SDS011;18221;38.704;0.152;2023-07-20T03:18:45;24.27;;;18.77;;
10174;SDS011;18221;38.704;0.152;2023-07-20T03:21:14;21.50;;;17.98;;
10174;SDS011;18221;38.704;0.152;2023-07-20T03:23:42;26.48;;;19.90;;
10174;SDS011;18221;38.704;0.152;2023-07-20T03:26:10;21.58;;;18.95;;
10174;SDS011;18221;38.704;0.152;2023-07-20T03:28:40;21.83;;;18.25;;
10174;SDS011;18221;38.704;0.152;2023-07-20T03:31:08;25.77;;;20.45;;
10174;SDS011;18221;38.704;0.152;2023-07-20T03:33:36;23.08;;;19.02;;
10174;SDS011;18221;38.704;0.152;2023-07-20T03:36:05;26.98;;;20.77;;
10174;SDS011;18221;38.704;0.152;2023-07-20T03:38:33;23.00;;;20.33;;
10174;SDS011;18221;38.704;0.152;2023-07-20T03:41:01;22.23;;;19.35;;
10174;SDS011;18221;38.704;0.152;2023-07-20T03:43:29;30.02;;;20.80;;
10174;SDS011;18221;38.704;0.152;2023-07-20T03:45:58;24.55;;;19.35;;
10174;SDS011;18221;38.704;0.152;2023-07-20T03:48:26;28.30;;;19.52;;
10174;SDS011;18221;38.704;0.152;2023-07-20T03:50:54;33.92;;;20.45;;
10174;SDS011;18221;38.704;0.152;2023-07-20T03:53:23;25.92;;;19.55;;
10174;SDS011;18221;38.704;0.152;2023-07-20T03:55:51;24.27;;;18.63;;
10174;SDS011;18221;38.704;0.152;2023-07-20T03:58:20;25.38;;;20.02;;
10174;SDS011;18221;38.704;0.152;2023-07-20T04:00:49;27.10;;;21.25;;
10174;SDS011;18221;38.704;0.152;2023-07-20T04:03:20;27.85;;;20.58;;
10174;SDS011;18221;38.704;0.152;2023-07-20T04:05:53;28.77;;;20.00;;
10174;SDS011;18221;38.704;0.152;2023-07-20T04:08:22;25.92;;;20.17;;
10174;SDS011;18221;38.704;0.152;2023-07-20T04:10:51;28.17;;;20.38;;
10174;SDS011;18221;38.704;0.152;2023-07-20T04:13:19;25.08;;;20.35;;
10174;SDS011;18221;38.704;0.152;2023-07-20T04:15:48;30.40;;;19.40;;
10174;SDS011;18221;38.704;0.152;2023-07-20T04:18:16;26.77;;;20.02;;
10174;SDS011;18221;38.704;0.152;2023-07-20T04:20:46;25.73;;;20.17;;
10174;SDS011;18221;38.704;0.152;2023-07-20T04:23:14;24.55;;;21.05;;
10174;SDS011;18221;38.704;0.152;2023-07-20T04:25:42;23.52;;;19.75;;
10174;SDS011;18221;38.704;0.152;2023-07-20T04:28:11;29.00;;;21.02;;
10174;SDS011;18221;38.704;0.152;2023-07-20T04:30:39;25.75;;;20.85;;
10174;SDS011;18221;38.704;0.152;2023-07-20T04:33:07;26.80;;;20.40;;
10174;SDS011;18221;38.704;0.152;2023-07-20T04:35:46;25.77;;;21.00;;
10174;SDS011;18221;38.704;0.152;2023-07-20T04:38:16;26.77;;;19.83;;
10174;SDS011;18221;38.704;0.152;2023-07-20T04:40:45;26.52;;;20.48;;
10174;SDS011;18221;38.704;0.152;2023-07-20T04:43:14;25.88;;;20.92;;
10174;SDS011;18221;38.704;0.152;2023-07-20T04:45:43;25.98;;;20.30;;
10174;SDS011;18221;38.704;0.152;2023-07-20T04:48:12;25.77;;;21.00;;
10174;SDS011;18221;38.704;0.152;2023-07-20T04:50:43;27.73;;;20.95;;
10174;SDS011;18221;38.704;0.152;2023-07-20T04:53:13;24.23;;;20.42;;
10174;SDS011;18221;38.704;0.152;2023-07-20T04:55:46;29.30;;;21.10;;
10174;SDS011;18221;38.704;0.152;2023-07-20T04:58:17;26.13;;;21.15;;
10174;SDS011;18221;38.704;0.152;2023-07-20T05:00:45;34.00;;;21.85;;
10174;SDS011;18221;38.704;0.152;2023-07-20T05:03:14;31.25;;;21.25;;
10174;SDS011;18221;38.704;0.152;2023-07-20T05:05:43;26.50;;;20.65;;
10174;SDS011;18221;38.704;0.152;2023-07-20T05:08:13;26.92;;;20.05;;
10174;SDS011;18221;38.704;0.152;2023-07-20T05:10:41;25.40;;;20.10;;
10174;SDS011;18221;38.704;0.152;2023-07-20T05:13:09;26.05;;;20.23;;
10174;SDS011;18221;38.704;0.152;2023-07-20T05:15:37;22.15;;;19.67;;
10174;SDS011;18221;38.704;0.152;2023-07-20T05:18:06;21.60;;;19.30;;
10174;SDS011;18221;38.704;0.152;2023-07-20T05:20:34;27.33;;;20.20;;
10174;SDS011;18221;38.704;0.152;2023-07-20T05:23:04;28.65;;;20.67;;
10174;SDS011;18221;38.704;0.152;2023-07-20T05:25:31;27.63;;;20.13;;
10174;SDS011;18221;38.704;0.152;2023-07-20T05:28:00;26.42;;;19.25;;
10174;SDS011;18221;38.704;0.152;2023-07-20T05:30:28;26.48;;;19.80;;
10174;SDS011;18221;38.704;0.152;2023-07-20T05:32:56;25.10;;;19.48;;
10174;SDS011;18221;38.704;0.152;2023-07-20T05:35:25;24.85;;;19.27;;
10174;SDS011;18221;38.704;0.152;2023-07-20T05:37:54;28.15;;;19.40;;
10174;SDS011;18221;38.704;0.152;2023-07-20T05:40:24;30.92;;;19.80;;
10174;SDS011;18221;38.704;0.152;2023-07-20T05:42:52;25.05;;;19.67;;
10174;SDS011;18221;38.704;0.152;2023-07-20T05:45:22;33.65;;;19.85;;
10174;SDS011;18221;38.704;0.152;2023-07-20T05:47:50;24.17;;;19.73;;
10174;SDS011;18221;38.704;0.152;2023-07-20T05:50:18;28.17;;;19.67;;
10174;SDS011;18221;38.704;0.152;2023-07-20T05:52:46;26.38;;;20.42;;
10174;SDS011;18221;38.704;0.152;2023-07-20T05:55:14;27.13;;;18.70;;
10174;SDS011;18221;38.704;0.152;2023-07-20T05:57:44;28.40;;;19.48;;
10174;SDS011;18221;38.704;0.152;2023-07-20T06:00:13;25.80;;;19.65;;
10174;SDS011;18221;38.704;0.152;2023-07-20T06:02:44;27.73;;;19.98;;
10174;SDS011;18221;38.704;0.152;2023-07-20T06:05:15;25.85;;;19.90;;
10174;SDS011;18221;38.704;0.152;2023-07-20T06:07:43;30.67;;;19.90;;
10174;SDS011;18221;38.704;0.152;2023-07-20T06:10:11;25.10;;;20.13;;
10174;SDS011;18221;38.704;0.152;2023-07-20T06:12:40;23.98;;;19.90;;
10174;SDS011;18221;38.704;0.152;2023-07-20T06:18:02;25.23;;;17.70;;
10174;SDS011;18221;38.704;0.152;2023-07-20T06:20:30;20.73;;;17.50;;
10174;SDS011;18221;38.704;0.152;2023-07-20T06:22:58;22.00;;;18.00;;
10174;SDS011;18221;38.704;0.152;2023-07-20T06:25:26;24.05;;;17.70;;
10174;SDS011;18221;38.704;0.152;2023-07-20T06:27:54;23.35;;;17.42;;
10174;SDS011;18221;38.704;0.152;2023-07-20T06:30:23;24.88;;;18.40;;
10174;SDS011;18221;38.704;0.152;2023-07-20T06:32:51;22.50;;;17.00;;
10174;SDS011;18221;38.704;0.152;2023-07-20T06:35:21;22.52;;;17.02;;
10174;SDS011;18221;38.704;0.152;2023-07-20T06:37:49;30.13;;;18.23;;
10174;SDS011;18221;38.704;0.152;2023-07-20T06:40:17;25.02;;;18.20;;
10174;SDS011;18221;38.704;0.152;2023-07-20T06:42:45;25.17;;;17.52;;
10174;SDS011;18221;38.704;0.152;2023-07-20T06:45:14;25.13;;;17.25;;
10174;SDS011;18221;38.704;0.152;2023-07-20T06:47:42;25.42;;;17.98;;
10174;SDS011;18221;38.704;0.152;2023-07-20T06:50:10;22.70;;;18.23;;
10174;SDS011;18221;38.704;0.152;2023-07-20T06:52:40;25.00;;;18.58;;
10174;SDS011;18221;38.704;0.152;2023-07-20T06:55:09;23.88;;;18.52;;
10174;SDS011;18221;38.704;0.152;2023-07-20T06:57:37;27.85;;;19.85;;
10174;SDS011;18221;38.704;0.152;2023-07-20T07:00:05;27.75;;;19.10;;
10174;SDS011;18221;38.704;0.152;2023-07-20T07:02:35;25.55;;;19.48;;
10174;SDS011;18221;38.704;0.152;2023-07-20T07:05:03;25.95;;;19.48;;
10174;SDS011;18221;38.704;0.152;2023-07-20T07:07:32;24.38;;;17.90;;
10174;SDS011;18221;38.704;0.152;2023-07-20T07:10:02;26.63;;;18.33;;
10174;SDS011;18221;38.704;0.152;2023-07-20T07:12:31;27.20;;;17.40;;
10174;SDS011;18221;38.704;0.152;2023-07-20T07:14:59;25.65;;;17.95;;
10174;SDS011;18221;38.704;0.152;2023-07-20T07:17:28;26.33;;;17.70;;
10174;SDS011;18221;38.704;0.152;2023-07-20T07:19:56;21.50;;;17.30;;
10174;SDS011;18221;38.704;0.152;2023-07-20T07:22:25;26.33;;;17.83;;
10174;SDS011;18221;38.704;0.152;2023-07-20T07:24:53;24.25;;;17.13;;
10174;SDS011;18221;38.704;0.152;2023-07-20T07:27:22;25.90;;;17.48;;
10174;SDS011;18221;38.704;0.152;2023-07-20T07:29:50;25.92;;;16.25;;
10174;SDS011;18221;38.704;0.152;2023-07-20T07:32:19;24.10;;;15.95;;
10174;SDS011;18221;38.704;0.152;2023-07-20T07:34:47;21.98;;;15.00;;
10174;SDS011;18221;38.704;0.152;2023-07-20T07:37:15;20.67;;;14.70;;
10174;SDS011;18221;38.704;0.152;2023-07-20T07:39:45;20.92;;;15.50;;
10174;SDS011;18221;38.704;0.152;2023-07-20T07:42:13;18.40;;;14.20;;
10174;SDS011;18221;38.704;0.152;2023-07-20T07:44:42;19.40;;;13.93;;
10174;SDS011;18221;38.704;0.152;2023-07-20T07:47:10;18.77;;;13.88;;
10174;SDS011;18221;38.704;0.152;2023-07-20T07:49:39;22.75;;;15.43;;
10174;SDS011;18221;38.704;0.152;2023-07-20T07:52:07;21.45;;;14.88;;
10174;SDS011;18221;38.704;0.152;2023-07-20T07:54:35;25.50;;;14.05;;
10174;SDS011;18221;38.704;0.152;2023-07-20T07:57:03;21.50;;;15.05;;
10174;SDS011;18221;38.704;0.152;2023-07-20T07:59:32;19.45;;;13.70;;
10174;SDS011;18221;38.704;0.152;2023-07-20T08:02:04;20.58;;;14.60;;
10174;SDS011;18221;38.704;0.152;2023-07-20T08:04:33;21.73;;;15.10;;
10174;SDS011;18221;38.704;0.152;2023-07-20T08:07:03;19.98;;;13.77;;
10174;SDS011;18221;38.704;0.152;2023-07-20T08:09:32;21.50;;;13.52;;
10174;SDS011;18221;38.704;0.152;2023-07-20T08:12:00;22.15;;;12.95;;
10174;SDS011;18221;38.704;0.152;2023-07-20T08:14:29;21.45;;;12.07;;
10174;SDS011;18221;38.704;0.152;2023-07-20T08:16:57;21.10;;;13.00;;
10174;SDS011;18221;38.704;0.152;2023-07-20T08:19:26;23.67;;;12.48;;
10174;SDS011;18221;38.704;0.152;2023-07-20T08:21:54;18.88;;;11.93;;
10174;SDS011;18221;38.704;0.152;2023-07-20T08:24:22;16.63;;;12.05;;
10174;SDS011;18221;38.704;0.152;2023-07-20T08:26:51;20.63;;;11.77;;
10174;SDS011;18221;38.704;0.152;2023-07-20T08:29:19;19.13;;;11.77;;
10174;SDS011;18221;38.704;0.152;2023-07-20T08:31:47;18.23;;;11.98;;
10174;SDS011;18221;38.704;0.152;2023-07-20T08:34:15;19.80;;;12.05;;
10174;SDS011;18221;38.704;0.152;2023-07-20T08:36:44;22.77;;;11.68;;
10174;SDS011;18221;38.704;0.152;2023-07-20T08:39:12;23.10;;;10.40;;
10174;SDS011;18221;38.704;0.152;2023-07-20T08:41:40;18.05;;;10.88;;
10174;SDS011;18221;38.704;0.152;2023-07-20T08:44:10;16.35;;;10.98;;
10174;SDS011;18221;38.704;0.152;2023-07-20T08:46:39;20.27;;;10.82;;
10174;SDS011;18221;38.704;0.152;2023-07-20T08:49:09;19.05;;;12.07;;
10174;SDS011;18221;38.704;0.152;2023-07-20T08:51:39;18.35;;;12.15;;
10174;SDS011;18221;38.704;0.152;2023-07-20T08:54:09;24.88;;;12.20;;
10174;SDS011;18221;38.704;0.152;2023-07-20T08:56:40;21.52;;;13.35;;
10174;SDS011;18221;38.704;0.152;2023-07-20T08:59:12;22.70;;;13.68;;
10174;SDS011;18221;38.704;0.152;2023-07-20T09:01:44;20.38;;;13.32;;
10174;SDS011;18221;38.704;0.152;2023-07-20T09:04:13;20.85;;;12.50;;
10174;SDS011;18221;38.704;0.152;2023-07-20T09:06:42;23.20;;;14.20;;
10174;SDS011;18221;38.704;0.152;2023-07-20T09:09:12;18.92;;;13.63;;
10174;SDS011;18221;38.704;0.152;2023-07-20T09:11:40;20.35;;;12.25;;
10174;SDS011;18221;38.704;0.152;2023-07-20T09:14:09;20.00;;;13.20;;
10174;SDS011;18221;38.704;0.152;2023-07-20T09:16:47;19.23;;;13.10;;
10174;SDS011;18221;38.704;0.152;2023-07-20T09:19:16;18.33;;;12.45;;
10174;SDS011;18221;38.704;0.152;2023-07-20T09:21:45;19.90;;;12.77;;
10174;SDS011;18221;38.704;0.152;2023-07-20T09:24:15;18.13;;;12.20;;
10174;SDS011;18221;38.704;0.152;2023-07-20T09:26:45;21.60;;;11.88;;
10174;SDS011;18221;38.704;0.152;2023-07-20T09:29:17;20.80;;;12.73;;
10174;SDS011;18221;38.704;0.152;2023-07-20T09:31:58;20.10;;;12.35;;
10174;SDS011;18221;38.704;0.152;2023-07-20T09:34:28;20.63;;;12.10;;
10174;SDS011;18221;38.704;0.152;2023-07-20T09:36:57;18.15;;;11.80;;
10174;SDS011;18221;38.704;0.152;2023-07-20T09:39:27;18.38;;;11.32;;
10174;SDS011;18221;38.704;0.152;2023-07-20T09:41:59;15.80;;;12.02;;
10174;SDS011;18221;38.704;0.152;2023-07-20T09:44:29;18.85;;;11.05;;
10174;SDS011;18221;38.704;0.152;2023-07-20T09:46:58;15.60;;;10.98;;
10174;SDS011;18221;38.704;0.152;2023-07-20T09:49:26;15.68;;;10.85;;
10174;SDS011;18221;38.704;0.152;2023-07-20T09:51:55;19.25;;;11.73;;
10174;SDS011;18221;38.704;0.152;2023-07-20T09:54:29;23.00;;;11.45;;
10174;SDS011;18221;38.704;0.152;2023-07-20T09:56:59;20.05;;;11.30;;
10174;SDS011;18221;38.704;0.152;2023-07-20T09:59:29;28.33;;;11.40;;
10174;SDS011;18221;38.704;0.152;2023-07-20T10:01:58;20.13;;;11.27;;
10174;SDS011;18221;38.704;0.152;2023-07-20T10:04:30;16.20;;;10.13;;
10174;SDS011;18221;38.704;0.152;2023-07-20T10:07:02;19.08;;;10.75;;
10174;SDS011;18221;38.704;0.152;2023-07-20T10:09:39;24.08;;;11.80;;
10174;SDS011;18221;38.704;0.152;2023-07-20T10:12:10;18.10;;;10.70;;
10174;SDS011;18221;38.704;0.152;2023-07-20T10:14:40;16.48;;;10.75;;
10174;SDS011;18221;38.704;0.152;2023-07-20T10:17:21;16.40;;;10.63;;
10174;SDS011;18221;38.704;0.152;2023-07-20T10:19:54;16.45;;;10.35;;
10174;SDS011;18221;38.704;0.152;2023-07-20T10:22:29;18.27;;;9.95;;
10174;SDS011;18221;38.704;0.152;2023-07-20T10:25:05;18.88;;;9.27;;
10174;SDS011;18221;38.704;0.152;2023-07-20T10:27:36;16.80;;;9.57;;
10174;SDS011;18221;38.704;0.152;2023-07-20T10:30:06;19.58;;;9.43;;
10174;SDS011;18221;38.704;0.152;2023-07-20T10:32:35;19.30;;;9.85;;
10174;SDS011;18221;38.704;0.152;2023-07-20T10:35:11;19.60;;;10.07;;
10174;SDS011;18221;38.704;0.152;2023-07-20T10:37:48;17.23;;;10.05;;
10174;SDS011;18221;38.704;0.152;2023-07-20T10:40:26;18.45;;;9.70;;
10174;SDS011;18221;38.704;0.152;2023-07-20T10:43:00;19.25;;;10.38;;
10174;SDS011;18221;38.704;0.152;2023-07-20T10:45:33;13.95;;;9.05;;
10174;SDS011;18221;38.704;0.152;2023-07-20T10:48:14;15.18;;;9.27;;
10174;SDS011;18221;38.704;0.152;2023-07-20T10:50:45;15.82;;;9.55;;
10174;SDS011;18221;38.704;0.152;2023-07-20T10:53:36;15.45;;;9.00;;
10174;SDS011;18221;38.704;0.152;2023-07-20T10:56:11;12.60;;;8.88;;
10174;SDS011;18221;38.704;0.152;2023-07-20T10:58:41;15.20;;;8.85;;
10174;SDS011;18221;38.704;0.152;2023-07-20T11:01:09;15.18;;;8.57;;
10174;SDS011;18221;38.704;0.152;2023-07-20T11:03:43;17.77;;;8.95;;
10174;SDS011;18221;38.704;0.152;2023-07-20T11:06:32;17.83;;;8.50;;
10174;SDS011;18221;38.704;0.152;2023-07-20T11:09:04;14.63;;;8.00;;
10174;SDS011;18221;38.704;0.152;2023-07-20T11:11:38;16.17;;;8.52;;
10174;SDS011;18221;38.704;0.152;2023-07-20T11:14:08;16.05;;;8.60;;
10174;SDS011;18221;38.704;0.152;2023-07-20T11:16:38;16.02;;;8.30;;
10174;SDS011;18221;38.704;0.152;2023-07-20T11:19:15;18.15;;;8.68;;
10174;SDS011;18221;38.704;0.152;2023-07-20T11:21:46;17.30;;;8.25;;
10174;SDS011;18221;38.704;0.152;2023-07-20T11:24:17;18.52;;;8.82;;
10174;SDS011;18221;38.704;0.152;2023-07-20T11:26:48;15.15;;;9.00;;
10174;SDS011;18221;38.704;0.152;2023-07-20T11:29:18;14.82;;;8.48;;
10174;SDS011;18221;38.704;0.152;2023-07-20T11:31:50;15.40;;;8.90;;
10174;SDS011;18221;38.704;0.152;2023-07-20T11:34:18;14.98;;;9.35;;
10174;SDS011;18221;38.704;0.152;2023-07-20T11:36:48;15.00;;;9.07;;
10174;SDS011;18221;38.704;0.152;2023-07-20T11:39:18;13.23;;;8.60;;
10174;SDS011;18221;38.704;0.152;2023-07-20T11:41:50;17.83;;;8.68;;
10174;SDS011;18221;38.704;0.152;2023-07-20T11:44:21;13.15;;;8.80;;
10174;SDS011;18221;38.704;0.152;2023-07-20T11:46:59;14.52;;;8.60;;
10174;SDS011;18221;38.704;0.152;2023-07-20T11:49:29;18.73;;;8.95;;
10174;SDS011;18221;38.704;0.152;2023-07-20T11:52:00;14.63;;;8.38;;
10174;SDS011;18221;38.704;0.152;2023-07-20T11:54:29;18.92;;;8.75;;
10174;SDS011;18221;38.704;0.152;2023-07-20T11:57:02;19.15;;;9.15;;
10174;SDS011;18221;38.704;0.152;2023-07-20T11:59:31;16.48;;;9.25;;
10174;SDS011;18221;38.704;0.152;2023-07-20T12:02:00;18.30;;;8.50;;
10174;SDS011;18221;38.704;0.152;2023-07-20T12:04:30;15.02;;;8.25;;
10174;SDS011;18221;38.704;0.152;2023-07-20T12:06:59;16.75;;;8.73;;
10174;SDS011;18221;38.704;0.152;2023-07-20T12:09:28;16.13;;;8.35;;
10174;SDS011;18221;38.704;0.152;2023-07-20T12:11:56;17.83;;;9.00;;
10174;SDS011;18221;38.704;0.152;2023-07-20T12:14:26;17.48;;;9.30;;
10174;SDS011;18221;38.704;0.152;2023-07-20T12:16:53;19.90;;;8.98;;
10174;SDS011;18221;38.704;0.152;2023-07-20T12:19:24;16.17;;;8.63;;
10174;SDS011;18221;38.704;0.152;2023-07-20T12:21:56;14.77;;;8.75;;
10174;SDS011;18221;38.704;0.152;2023-07-20T12:24:26;15.23;;;8.90;;
10174;SDS011;18221;38.704;0.152;2023-07-20T12:26:55;16.88;;;9.23;;
10174;SDS011;18221;38.704;0.152;2023-07-20T12:29:27;16.85;;;9.13;;
10174;SDS011;18221;38.704;0.152;2023-07-20T12:31:56;14.63;;;8.60;;
10174;SDS011;18221;38.704;0.152;2023-07-20T12:34:25;13.27;;;8.35;;
10174;SDS011;18221;38.704;0.152;2023-07-20T12:36:53;16.52;;;8.45;;
10174;SDS011;18221;38.704;0.152;2023-07-20T12:39:22;14.65;;;8.20;;
10174;SDS011;18221;38.704;0.152;2023-07-20T12:41:50;14.93;;;7.90;;
10174;SDS011;18221;38.704;0.152;2023-07-20T12:44:18;13.15;;;7.93;;
10174;SDS011;18221;38.704;0.152;2023-07-20T12:46:48;13.75;;;8.48;;
10174;SDS011;18221;38.704;0.152;2023-07-20T12:49:16;21.77;;;9.15;;
10174;SDS011;18221;38.704;0.152;2023-07-20T12:51:44;15.85;;;8.48;;
10174;SDS011;18221;38.704;0.152;2023-07-20T12:54:12;18.23;;;9.20;;
10174;SDS011;18221;38.704;0.152;2023-07-20T12:56:40;12.88;;;8.18;;
10174;SDS011;18221;38.704;0.152;2023-07-20T12:59:08;15.02;;;8.38;;
10174;SDS011;18221;38.704;0.152;2023-07-20T13:01:36;18.35;;;8.88;;
10174;SDS011;18221;38.704;0.152;2023-07-20T13:04:08;15.90;;;8.43;;
10174;SDS011;18221;38.704;0.152;2023-07-20T13:06:36;18.00;;;8.75;;
10174;SDS011;18221;38.704;0.152;2023-07-20T13:09:06;13.20;;;8.70;;
10174;SDS011;18221;38.704;0.152;2023-07-20T13:11:35;19.30;;;9.23;;
10174;SDS011;18221;38.704;0.152;2023-07-20T13:14:03;15.90;;;8.73;;
10174;SDS011;18221;38.704;0.152;2023-07-20T13:16:31;13.35;;;8.32;;
10174;SDS011;18221;38.704;0.152;2023-07-20T13:19:00;13.02;;;8.30;;
10174;SDS011;18221;38.704;0.152;2023-07-20T13:21:30;18.55;;;9.10;;
10174;SDS011;18221;38.704;0.152;2023-07-20T13:23:58;16.05;;;8.57;;
10174;SDS011;18221;38.704;0.152;2023-07-20T13:26:26;15.95;;;8.85;;
10174;SDS011;18221;38.704;0.152;2023-07-20T13:28:55;16.23;;;8.82;;
10174;SDS011;18221;38.704;0.152;2023-07-20T13:31:23;16.52;;;8.40;;
10174;SDS011;18221;38.704;0.152;2023-07-20T13:33:51;14.23;;;8.35;;
10174;SDS011;18221;38.704;0.152;2023-07-20T13:36:20;16.67;;;8.90;;
10174;SDS011;18221;38.704;0.152;2023-07-20T13:38:50;14.10;;;9.15;;
10174;SDS011;18221;38.704;0.152;2023-07-20T13:41:18;12.27;;;7.90;;
10174;SDS011;18221;38.704;0.152;2023-07-20T13:43:46;17.35;;;8.95;;
10174;SDS011;18221;38.704;0.152;2023-07-20T13:46:14;16.08;;;8.73;;
10174;SDS011;18221;38.704;0.152;2023-07-20T13:48:42;19.17;;;8.30;;
10174;SDS011;18221;38.704;0.152;2023-07-20T13:51:11;18.20;;;8.63;;
10174;SDS011;18221;38.704;0.152;2023-07-20T13:53:39;15.93;;;8.00;;
10174;SDS011;18221;38.704;0.152;2023-07-20T13:56:08;18.98;;;7.85;;
10174;SDS011;18221;38.704;0.152;2023-07-20T13:58:36;15.27;;;8.63;;
10174;SDS011;18221;38.704;0.152;2023-07-20T14:01:05;13.90;;;8.18;;
10174;SDS011;18221;38.704;0.152;2023-07-20T14:03:33;12.85;;;7.25;;
10174;SDS011;18221;38.704;0.152;2023-07-20T14:06:01;17.48;;;7.60;;
10174;SDS011;18221;38.704;0.152;2023-07-20T14:08:29;9.95;;;6.90;;
10174;SDS011;18221;38.704;0.152;2023-07-20T14:10:57;16.52;;;7.60;;
10174;SDS011;18221;38.704;0.152;2023-07-20T14:13:27;13.02;;;8.10;;
10174;SDS011;18221;38.704;0.152;2023-07-20T14:15:56;15.48;;;7.65;;
10174;SDS011;18221;38.704;0.152;2023-07-20T14:18:24;11.88;;;7.72;;
10174;SDS011;18221;38.704;0.152;2023-07-20T14:20:52;16.15;;;8.48;;
10174;SDS011;18221;38.704;0.152;2023-07-20T14:23:20;17.15;;;7.57;;
10174;SDS011;18221;38.704;0.152;2023-07-20T14:25:49;15.80;;;8.07;;
10174;SDS011;18221;38.704;0.152;2023-07-20T14:28:17;16.90;;;8.48;;
10174;SDS011;18221;38.704;0.152;2023-07-20T14:30:47;14.85;;;8.32;;
10174;SDS011;18221;38.704;0.152;2023-07-20T14:33:15;17.40;;;8.75;;
10174;SDS011;18221;38.704;0.152;2023-07-20T14:35:43;18.38;;;8.98;;
10174;SDS011;18221;38.704;0.152;2023-07-20T14:38:11;16.05;;;9.07;;
10174;SDS011;18221;38.704;0.152;2023-07-20T14:40:39;18.50;;;9.40;;
10174;SDS011;18221;38.704;0.152;2023-07-20T14:43:07;16.42;;;9.30;;
10174;SDS011;18221;38.704;0.152;2023-07-20T14:45:36;17.70;;;9.05;;
10174;SDS011;18221;38.704;0.152;2023-07-20T14:48:05;19.17;;;8.77;;
10174;SDS011;18221;38.704;0.152;2023-07-20T14:50:33;16.40;;;9.27;;
10174;SDS011;18221;38.704;0.152;2023-07-20T14:53:01;18.95;;;9.07;;
10174;SDS011;18221;38.704;0.152;2023-07-20T14:55:30;16.20;;;9.25;;
10174;SDS011;18221;38.704;0.152;2023-07-20T14:57:58;18.00;;;9.27;;
10174;SDS011;18221;38.704;0.152;2023-07-20T15:00:26;16.35;;;8.38;;